sensor_id;sensor_type;location;lat;lon;timestamp;P1;durP1;ratioP1;P2;durP2;ratioP2
68800;SDS011;55784;50.734;7.086;2023-06-22T00:02:15;9.60;;;5.70;;
68800;SDS011;55784;50.734;7.086;2023-06-22T00:04:40;10.03;;;5.90;;
68800;SDS011;55784;50.734;7.086;2023-06-22T00:07:06;9.60;;;5.40;;
68800;SDS011;55784;50.734;7.086;2023-06-22T00:09:32;10.20;;;5.68;;
68800;SDS011;55784;50.734;7.086;2023-06-22T00:11:58;12.60;;;6.03;;
68800;SDS011;55784;50.734;7.086;2023-06-22T00:14:23;20.80;;;10.77;;
68800;SDS011;55784;50.734;7.086;2023-06-22T00:16:48;11.07;;;6.67;;
68800;SDS011;55784;50.734;7.086;2023-06-22T00:19:14;11.67;;;6.37;;
68800;SDS011;55784;50.734;7.086;2023-06-22T00:21:40;11.70;;;6.45;;
68800;SDS011;55784;50.734;7.086;2023-06-22T00:24:07;9.70;;;5.90;;
68800;SDS011;55784;50.734;7.086;2023-06-22T00:26:33;11.25;;;5.95;;
68800;SDS011;55784;50.734;7.086;2023-06-22T00:28:58;10.17;;;5.70;;
68800;SDS011;55784;50.734;7.086;2023-06-22T00:31:23;10.60;;;6.10;;
68800;SDS011;55784;50.734;7.086;2023-06-22T00:33:49;10.93;;;5.80;;
68800;SDS011;55784;50.734;7.086;2023-06-22T00:36:16;9.43;;;5.60;;
68800;SDS011;55784;50.734;7.086;2023-06-22T00:38:42;11.20;;;6.20;;
68800;SDS011;55784;50.734;7.086;2023-06-22T00:41:08;10.67;;;5.93;;
68800;SDS011;55784;50.734;7.086;2023-06-22T00:43:33;9.07;;;5.80;;
68800;SDS011;55784;50.734;7.086;2023-06-22T00:45:58;10.20;;;5.90;;
68800;SDS011;55784;50.734;7.086;2023-06-22T00:48:24;12.20;;;6.40;;
68800;SDS011;55784;50.734;7.086;2023-06-22T00:50:49;11.45;;;5.82;;
68800;SDS011;55784;50.734;7.086;2023-06-22T00:53:16;9.32;;;5.60;;
68800;SDS011;55784;50.734;7.086;2023-06-22T00:55:43;9.73;;;5.75;;
68800;SDS011;55784;50.734;7.086;2023-06-22T00:58:12;9.30;;;5.67;;
68800;SDS011;55784;50.734;7.086;2023-06-22T01:00:39;11.18;;;5.93;;
68800;SDS011;55784;50.734;7.086;2023-06-22T01:03:05;9.35;;;5.50;;
68800;SDS011;55784;50.734;7.086;2023-06-22T01:05:34;12.10;;;6.35;;
68800;SDS011;55784;50.734;7.086;2023-06-22T01:08:02;10.32;;;6.00;;
68800;SDS011;55784;50.734;7.086;2023-06-22T01:16:25;10.73;;;6.22;;
68800;SDS011;55784;50.734;7.086;2023-06-22T01:18:55;11.40;;;6.32;;
68800;SDS011;55784;50.734;7.086;2023-06-22T01:21:22;11.02;;;6.68;;
68800;SDS011;55784;50.734;7.086;2023-06-22T01:26:37;10.93;;;6.72;;
68800;SDS011;55784;50.734;7.086;2023-06-22T01:29:07;9.13;;;5.88;;
68800;SDS011;55784;50.734;7.086;2023-06-22T01:31:36;10.50;;;5.85;;
68800;SDS011;55784;50.734;7.086;2023-06-22T01:34:04;9.77;;;5.70;;
68800;SDS011;55784;50.734;7.086;2023-06-22T01:36:31;10.87;;;6.03;;
68800;SDS011;55784;50.734;7.086;2023-06-22T01:38:58;11.02;;;6.25;;
68800;SDS011;55784;50.734;7.086;2023-06-22T01:41:25;10.50;;;5.93;;
68800;SDS011;55784;50.734;7.086;2023-06-22T01:43:52;10.00;;;6.15;;
68800;SDS011;55784;50.734;7.086;2023-06-22T01:46:18;10.68;;;5.95;;
68800;SDS011;55784;50.734;7.086;2023-06-22T01:48:44;10.47;;;5.97;;
68800;SDS011;55784;50.734;7.086;2023-06-22T01:51:11;9.68;;;6.10;;
68800;SDS011;55784;50.734;7.086;2023-06-22T01:53:36;10.70;;;6.00;;
68800;SDS011;55784;50.734;7.086;2023-06-22T01:56:02;11.87;;;5.70;;
68800;SDS011;55784;50.734;7.086;2023-06-22T01:58:28;10.73;;;6.20;;
68800;SDS011;55784;50.734;7.086;2023-06-22T02:00:58;11.32;;;6.40;;
68800;SDS011;55784;50.734;7.086;2023-06-22T02:03:31;9.63;;;5.93;;
68800;SDS011;55784;50.734;7.086;2023-06-22T02:06:08;10.77;;;6.18;;
68800;SDS011;55784;50.734;7.086;2023-06-22T02:08:57;10.23;;;5.83;;
68800;SDS011;55784;50.734;7.086;2023-06-22T02:11:25;11.05;;;5.85;;
68800;SDS011;55784;50.734;7.086;2023-06-22T02:13:53;9.43;;;5.70;;
68800;SDS011;55784;50.734;7.086;2023-06-22T02:16:18;10.30;;;5.97;;
68800;SDS011;55784;50.734;7.086;2023-06-22T02:18:47;10.48;;;6.00;;
68800;SDS011;55784;50.734;7.086;2023-06-22T02:21:16;10.95;;;6.18;;
68800;SDS011;55784;50.734;7.086;2023-06-22T02:23:42;12.33;;;6.17;;
68800;SDS011;55784;50.734;7.086;2023-06-22T02:26:08;11.00;;;6.13;;
68800;SDS011;55784;50.734;7.086;2023-06-22T02:28:33;9.98;;;5.90;;
68800;SDS011;55784;50.734;7.086;2023-06-22T02:30:58;9.73;;;5.90;;
68800;SDS011;55784;50.734;7.086;2023-06-22T02:33:24;10.10;;;5.97;;
68800;SDS011;55784;50.734;7.086;2023-06-22T02:35:49;10.20;;;5.70;;
68800;SDS011;55784;50.734;7.086;2023-06-22T02:38:15;10.43;;;5.70;;
68800;SDS011;55784;50.734;7.086;2023-06-22T02:40:40;9.27;;;5.60;;
68800;SDS011;55784;50.734;7.086;2023-06-22T02:43:06;10.10;;;5.67;;
68800;SDS011;55784;50.734;7.086;2023-06-22T02:45:31;14.77;;;5.80;;
68800;SDS011;55784;50.734;7.086;2023-06-22T02:47:56;10.53;;;5.73;;
68800;SDS011;55784;50.734;7.086;2023-06-22T02:50:22;9.35;;;5.70;;
68800;SDS011;55784;50.734;7.086;2023-06-22T02:52:47;9.53;;;5.90;;
68800;SDS011;55784;50.734;7.086;2023-06-22T02:55:13;11.73;;;5.67;;
68800;SDS011;55784;50.734;7.086;2023-06-22T02:57:38;11.45;;;5.90;;
68800;SDS011;55784;50.734;7.086;2023-06-22T03:00:09;12.07;;;5.87;;
68800;SDS011;55784;50.734;7.086;2023-06-22T03:02:46;9.68;;;5.68;;
68800;SDS011;55784;50.734;7.086;2023-06-22T03:05:12;9.35;;;5.25;;
68800;SDS011;55784;50.734;7.086;2023-06-22T03:07:42;11.50;;;6.10;;
68800;SDS011;55784;50.734;7.086;2023-06-22T03:10:11;10.60;;;5.75;;
68800;SDS011;55784;50.734;7.086;2023-06-22T03:12:38;11.43;;;6.03;;
68800;SDS011;55784;50.734;7.086;2023-06-22T03:15:10;11.57;;;5.38;;
68800;SDS011;55784;50.734;7.086;2023-06-22T03:17:37;9.88;;;5.93;;
68800;SDS011;55784;50.734;7.086;2023-06-22T03:20:06;11.13;;;6.03;;
68800;SDS011;55784;50.734;7.086;2023-06-22T03:22:37;12.57;;;5.75;;
68800;SDS011;55784;50.734;7.086;2023-06-22T03:25:07;10.73;;;5.40;;
68800;SDS011;55784;50.734;7.086;2023-06-22T03:27:38;10.10;;;5.63;;
68800;SDS011;55784;50.734;7.086;2023-06-22T03:30:03;9.67;;;5.80;;
68800;SDS011;55784;50.734;7.086;2023-06-22T03:32:29;10.47;;;5.77;;
68800;SDS011;55784;50.734;7.086;2023-06-22T03:34:55;12.23;;;6.50;;
68800;SDS011;55784;50.734;7.086;2023-06-22T03:37:23;12.23;;;6.60;;
68800;SDS011;55784;50.734;7.086;2023-06-22T03:39:52;11.15;;;6.20;;
68800;SDS011;55784;50.734;7.086;2023-06-22T03:42:17;13.68;;;6.20;;
68800;SDS011;55784;50.734;7.086;2023-06-22T03:44:43;11.67;;;6.53;;
68800;SDS011;55784;50.734;7.086;2023-06-22T03:47:08;10.77;;;6.57;;
68800;SDS011;55784;50.734;7.086;2023-06-22T03:49:34;12.20;;;6.57;;
68800;SDS011;55784;50.734;7.086;2023-06-22T03:52:00;12.13;;;6.30;;
68800;SDS011;55784;50.734;7.086;2023-06-22T03:54:27;12.07;;;5.78;;
68800;SDS011;55784;50.734;7.086;2023-06-22T03:56:53;13.33;;;6.10;;
68800;SDS011;55784;50.734;7.086;2023-06-22T03:59:18;10.75;;;5.72;;
68800;SDS011;55784;50.734;7.086;2023-06-22T04:01:44;11.77;;;5.80;;
68800;SDS011;55784;50.734;7.086;2023-06-22T04:04:09;12.00;;;6.13;;
68800;SDS011;55784;50.734;7.086;2023-06-22T04:06:35;10.57;;;6.20;;
68800;SDS011;55784;50.734;7.086;2023-06-22T04:09:00;10.33;;;6.10;;
68800;SDS011;55784;50.734;7.086;2023-06-22T04:11:26;11.10;;;6.00;;
68800;SDS011;55784;50.734;7.086;2023-06-22T04:13:51;12.43;;;6.07;;
68800;SDS011;55784;50.734;7.086;2023-06-22T04:16:16;11.73;;;6.30;;
68800;SDS011;55784;50.734;7.086;2023-06-22T04:18:42;14.17;;;6.70;;
68800;SDS011;55784;50.734;7.086;2023-06-22T04:21:07;11.57;;;6.55;;
68800;SDS011;55784;50.734;7.086;2023-06-22T04:23:32;11.57;;;6.50;;
68800;SDS011;55784;50.734;7.086;2023-06-22T04:25:58;12.00;;;6.70;;
68800;SDS011;55784;50.734;7.086;2023-06-22T04:28:24;11.18;;;7.05;;
68800;SDS011;55784;50.734;7.086;2023-06-22T04:30:49;11.40;;;7.07;;
68800;SDS011;55784;50.734;7.086;2023-06-22T04:33:16;13.27;;;7.45;;
68800;SDS011;55784;50.734;7.086;2023-06-22T04:35:41;13.77;;;7.37;;
68800;SDS011;55784;50.734;7.086;2023-06-22T04:38:11;11.93;;;6.57;;
68800;SDS011;55784;50.734;7.086;2023-06-22T04:40:38;12.15;;;6.40;;
68800;SDS011;55784;50.734;7.086;2023-06-22T04:43:06;11.73;;;5.90;;
68800;SDS011;55784;50.734;7.086;2023-06-22T04:45:32;12.57;;;7.07;;
68800;SDS011;55784;50.734;7.086;2023-06-22T04:47:58;12.40;;;6.78;;
68800;SDS011;55784;50.734;7.086;2023-06-22T04:50:24;11.70;;;6.23;;
68800;SDS011;55784;50.734;7.086;2023-06-22T04:52:50;11.48;;;6.38;;
68800;SDS011;55784;50.734;7.086;2023-06-22T04:55:16;13.80;;;6.50;;
68800;SDS011;55784;50.734;7.086;2023-06-22T04:57:45;10.53;;;7.10;;
68800;SDS011;55784;50.734;7.086;2023-06-22T05:00:13;11.85;;;6.82;;
68800;SDS011;55784;50.734;7.086;2023-06-22T05:02:43;13.23;;;7.43;;
68800;SDS011;55784;50.734;7.086;2023-06-22T05:05:10;10.95;;;6.80;;
68800;SDS011;55784;50.734;7.086;2023-06-22T05:07:39;15.23;;;8.73;;
68800;SDS011;55784;50.734;7.086;2023-06-22T05:10:08;12.67;;;7.43;;
68800;SDS011;55784;50.734;7.086;2023-06-22T05:12:37;15.07;;;7.88;;
68800;SDS011;55784;50.734;7.086;2023-06-22T05:15:04;11.15;;;7.30;;
68800;SDS011;55784;50.734;7.086;2023-06-22T05:17:31;12.88;;;6.57;;
68800;SDS011;55784;50.734;7.086;2023-06-22T05:19:56;12.07;;;7.27;;
68800;SDS011;55784;50.734;7.086;2023-06-22T05:22:21;11.07;;;6.90;;
68800;SDS011;55784;50.734;7.086;2023-06-22T05:24:47;12.53;;;6.80;;
68800;SDS011;55784;50.734;7.086;2023-06-22T05:27:13;11.32;;;7.03;;
68800;SDS011;55784;50.734;7.086;2023-06-22T05:29:39;12.30;;;7.13;;
68800;SDS011;55784;50.734;7.086;2023-06-22T05:32:05;11.88;;;7.35;;
68800;SDS011;55784;50.734;7.086;2023-06-22T05:34:31;13.10;;;7.70;;
68800;SDS011;55784;50.734;7.086;2023-06-22T05:36:56;14.20;;;7.80;;
68800;SDS011;55784;50.734;7.086;2023-06-22T05:39:24;15.32;;;7.70;;
68800;SDS011;55784;50.734;7.086;2023-06-22T05:41:49;15.00;;;8.10;;
68800;SDS011;55784;50.734;7.086;2023-06-22T05:44:15;14.83;;;7.87;;
68800;SDS011;55784;50.734;7.086;2023-06-22T05:46:40;15.27;;;7.20;;
68800;SDS011;55784;50.734;7.086;2023-06-22T05:49:09;13.27;;;7.50;;
68800;SDS011;55784;50.734;7.086;2023-06-22T05:51:35;11.73;;;6.93;;
68800;SDS011;55784;50.734;7.086;2023-06-22T05:54:00;13.47;;;8.03;;
68800;SDS011;55784;50.734;7.086;2023-06-22T05:56:26;14.95;;;8.48;;
68800;SDS011;55784;50.734;7.086;2023-06-22T05:58:51;15.47;;;8.40;;
68800;SDS011;55784;50.734;7.086;2023-06-22T06:01:16;14.93;;;8.03;;
68800;SDS011;55784;50.734;7.086;2023-06-22T06:03:42;13.73;;;8.03;;
68800;SDS011;55784;50.734;7.086;2023-06-22T06:06:07;14.97;;;8.50;;
68800;SDS011;55784;50.734;7.086;2023-06-22T06:08:33;14.15;;;8.60;;
68800;SDS011;55784;50.734;7.086;2023-06-22T06:10:58;14.77;;;8.23;;
68800;SDS011;55784;50.734;7.086;2023-06-22T06:13:23;13.40;;;7.93;;
68800;SDS011;55784;50.734;7.086;2023-06-22T06:15:49;13.13;;;8.00;;
68800;SDS011;55784;50.734;7.086;2023-06-22T06:18:19;14.93;;;8.88;;
68800;SDS011;55784;50.734;7.086;2023-06-22T06:20:44;12.63;;;8.02;;
68800;SDS011;55784;50.734;7.086;2023-06-22T06:23:10;14.03;;;8.60;;
68800;SDS011;55784;50.734;7.086;2023-06-22T06:25:35;13.40;;;8.37;;
68800;SDS011;55784;50.734;7.086;2023-06-22T06:28:00;13.43;;;8.40;;
68800;SDS011;55784;50.734;7.086;2023-06-22T06:30:26;11.97;;;7.23;;
68800;SDS011;55784;50.734;7.086;2023-06-22T06:32:51;12.77;;;7.90;;
68800;SDS011;55784;50.734;7.086;2023-06-22T06:35:16;13.77;;;8.47;;
68800;SDS011;55784;50.734;7.086;2023-06-22T06:37:47;14.07;;;8.80;;
68800;SDS011;55784;50.734;7.086;2023-06-22T06:40:13;14.85;;;9.50;;
68800;SDS011;55784;50.734;7.086;2023-06-22T06:42:43;13.65;;;8.70;;
68800;SDS011;55784;50.734;7.086;2023-06-22T06:45:15;14.97;;;9.43;;
68800;SDS011;55784;50.734;7.086;2023-06-22T06:47:42;16.60;;;9.15;;
68800;SDS011;55784;50.734;7.086;2023-06-22T06:50:08;14.80;;;9.32;;
68800;SDS011;55784;50.734;7.086;2023-06-22T06:52:34;12.85;;;8.60;;
68800;SDS011;55784;50.734;7.086;2023-06-22T06:54:59;22.33;;;10.57;;
68800;SDS011;55784;50.734;7.086;2023-06-22T06:57:34;16.80;;;9.40;;
68800;SDS011;55784;50.734;7.086;2023-06-22T07:00:00;19.05;;;9.65;;
68800;SDS011;55784;50.734;7.086;2023-06-22T07:02:27;16.27;;;9.10;;
68800;SDS011;55784;50.734;7.086;2023-06-22T07:04:57;16.45;;;9.27;;
68800;SDS011;55784;50.734;7.086;2023-06-22T07:07:23;15.57;;;8.73;;
68800;SDS011;55784;50.734;7.086;2023-06-22T07:09:49;14.55;;;8.98;;
68800;SDS011;55784;50.734;7.086;2023-06-22T07:12:14;15.17;;;8.70;;
68800;SDS011;55784;50.734;7.086;2023-06-22T07:14:39;14.03;;;8.73;;
68800;SDS011;55784;50.734;7.086;2023-06-22T07:17:05;17.27;;;10.07;;
68800;SDS011;55784;50.734;7.086;2023-06-22T07:19:32;17.97;;;9.80;;
68800;SDS011;55784;50.734;7.086;2023-06-22T07:21:58;13.43;;;9.68;;
68800;SDS011;55784;50.734;7.086;2023-06-22T07:24:23;19.73;;;10.40;;
68800;SDS011;55784;50.734;7.086;2023-06-22T07:26:49;18.77;;;9.40;;
68800;SDS011;55784;50.734;7.086;2023-06-22T07:29:22;13.55;;;8.75;;
68800;SDS011;55784;50.734;7.086;2023-06-22T07:31:47;13.43;;;8.20;;
68800;SDS011;55784;50.734;7.086;2023-06-22T07:34:14;13.50;;;8.10;;
68800;SDS011;55784;50.734;7.086;2023-06-22T07:36:40;14.07;;;8.50;;
68800;SDS011;55784;50.734;7.086;2023-06-22T07:39:05;11.63;;;7.15;;
68800;SDS011;55784;50.734;7.086;2023-06-22T07:41:31;13.80;;;7.87;;
68800;SDS011;55784;50.734;7.086;2023-06-22T07:43:56;12.57;;;7.72;;
68800;SDS011;55784;50.734;7.086;2023-06-22T07:46:22;25.87;;;9.60;;
68800;SDS011;55784;50.734;7.086;2023-06-22T07:48:48;14.07;;;8.17;;
68800;SDS011;55784;50.734;7.086;2023-06-22T07:51:13;12.53;;;7.87;;
68800;SDS011;55784;50.734;7.086;2023-06-22T07:53:40;26.48;;;8.75;;
68800;SDS011;55784;50.734;7.086;2023-06-22T07:56:06;12.88;;;7.78;;
68800;SDS011;55784;50.734;7.086;2023-06-22T07:58:34;11.27;;;7.32;;
68800;SDS011;55784;50.734;7.086;2023-06-22T08:00:59;11.97;;;7.13;;
68800;SDS011;55784;50.734;7.086;2023-06-22T08:03:25;14.13;;;8.03;;
68800;SDS011;55784;50.734;7.086;2023-06-22T08:05:50;12.13;;;7.97;;
68800;SDS011;55784;50.734;7.086;2023-06-22T08:08:15;12.03;;;7.63;;
68800;SDS011;55784;50.734;7.086;2023-06-22T08:10:41;11.67;;;7.33;;
68800;SDS011;55784;50.734;7.086;2023-06-22T08:13:07;16.33;;;7.78;;
68800;SDS011;55784;50.734;7.086;2023-06-22T08:15:32;12.97;;;7.10;;
68800;SDS011;55784;50.734;7.086;2023-06-22T08:17:58;18.70;;;7.73;;
68800;SDS011;55784;50.734;7.086;2023-06-22T08:20:25;12.85;;;7.35;;
68800;SDS011;55784;50.734;7.086;2023-06-22T08:22:50;11.30;;;7.30;;
68800;SDS011;55784;50.734;7.086;2023-06-22T08:25:15;11.57;;;7.10;;
68800;SDS011;55784;50.734;7.086;2023-06-22T08:27:44;11.37;;;7.30;;
68800;SDS011;55784;50.734;7.086;2023-06-22T08:30:10;15.48;;;7.65;;
68800;SDS011;55784;50.734;7.086;2023-06-22T08:32:36;13.77;;;8.00;;
68800;SDS011;55784;50.734;7.086;2023-06-22T08:35:01;16.40;;;8.30;;
68800;SDS011;55784;50.734;7.086;2023-06-22T08:37:27;11.60;;;7.40;;
68800;SDS011;55784;50.734;7.086;2023-06-22T08:39:57;14.13;;;7.70;;
68800;SDS011;55784;50.734;7.086;2023-06-22T08:42:24;14.00;;;7.45;;
68800;SDS011;55784;50.734;7.086;2023-06-22T08:44:50;16.07;;;8.50;;
68800;SDS011;55784;50.734;7.086;2023-06-22T08:47:16;14.32;;;8.30;;
68800;SDS011;55784;50.734;7.086;2023-06-22T08:49:41;13.43;;;7.67;;
68800;SDS011;55784;50.734;7.086;2023-06-22T08:52:07;13.40;;;8.13;;
68800;SDS011;55784;50.734;7.086;2023-06-22T08:54:32;13.13;;;7.63;;
68800;SDS011;55784;50.734;7.086;2023-06-22T08:56:59;16.55;;;9.10;;
68800;SDS011;55784;50.734;7.086;2023-06-22T08:59:25;16.53;;;7.90;;
68800;SDS011;55784;50.734;7.086;2023-06-22T09:01:50;15.60;;;8.07;;
68800;SDS011;55784;50.734;7.086;2023-06-22T09:04:16;12.87;;;7.90;;
68800;SDS011;55784;50.734;7.086;2023-06-22T09:06:41;14.33;;;8.00;;
68800;SDS011;55784;50.734;7.086;2023-06-22T09:09:10;16.85;;;8.40;;
68800;SDS011;55784;50.734;7.086;2023-06-22T09:11:37;13.17;;;7.93;;
68800;SDS011;55784;50.734;7.086;2023-06-22T09:14:02;12.55;;;7.43;;
68800;SDS011;55784;50.734;7.086;2023-06-22T09:16:28;12.53;;;7.20;;
68800;SDS011;55784;50.734;7.086;2023-06-22T09:18:54;14.30;;;7.55;;
68800;SDS011;55784;50.734;7.086;2023-06-22T09:21:19;13.93;;;8.00;;
68800;SDS011;55784;50.734;7.086;2023-06-22T09:23:44;12.27;;;7.07;;
68800;SDS011;55784;50.734;7.086;2023-06-22T09:26:15;27.30;;;8.80;;
68800;SDS011;55784;50.734;7.086;2023-06-22T09:28:40;12.03;;;7.27;;
68800;SDS011;55784;50.734;7.086;2023-06-22T09:31:05;23.23;;;8.90;;
68800;SDS011;55784;50.734;7.086;2023-06-22T09:33:31;11.25;;;7.20;;
68800;SDS011;55784;50.734;7.086;2023-06-22T09:35:57;12.03;;;7.70;;
68800;SDS011;55784;50.734;7.086;2023-06-22T09:38:22;61.90;;;13.27;;
68800;SDS011;55784;50.734;7.086;2023-06-22T09:40:47;24.80;;;8.90;;
68800;SDS011;55784;50.734;7.086;2023-06-22T09:43:13;20.43;;;7.83;;
68800;SDS011;55784;50.734;7.086;2023-06-22T09:45:38;14.38;;;7.70;;
68800;SDS011;55784;50.734;7.086;2023-06-22T09:48:03;11.37;;;7.27;;
68800;SDS011;55784;50.734;7.086;2023-06-22T09:50:29;12.80;;;7.40;;
68800;SDS011;55784;50.734;7.086;2023-06-22T09:52:54;11.77;;;7.33;;
68800;SDS011;55784;50.734;7.086;2023-06-22T09:55:23;12.00;;;7.37;;
68800;SDS011;55784;50.734;7.086;2023-06-22T09:57:48;12.35;;;7.82;;
68800;SDS011;55784;50.734;7.086;2023-06-22T10:00:14;13.43;;;8.33;;
68800;SDS011;55784;50.734;7.086;2023-06-22T10:02:41;17.65;;;10.55;;
68800;SDS011;55784;50.734;7.086;2023-06-22T10:05:07;13.38;;;8.10;;
68800;SDS011;55784;50.734;7.086;2023-06-22T10:07:33;12.80;;;8.03;;
68800;SDS011;55784;50.734;7.086;2023-06-22T10:09:58;12.57;;;8.00;;
68800;SDS011;55784;50.734;7.086;2023-06-22T10:12:24;12.75;;;8.15;;
68800;SDS011;55784;50.734;7.086;2023-06-22T10:14:50;13.40;;;7.83;;
68800;SDS011;55784;50.734;7.086;2023-06-22T10:17:15;16.10;;;7.82;;
68800;SDS011;55784;50.734;7.086;2023-06-22T10:19:41;14.03;;;8.03;;
68800;SDS011;55784;50.734;7.086;2023-06-22T10:22:06;13.83;;;8.03;;
68800;SDS011;55784;50.734;7.086;2023-06-22T10:24:33;13.13;;;7.67;;
68800;SDS011;55784;50.734;7.086;2023-06-22T10:26:58;13.50;;;7.55;;
68800;SDS011;55784;50.734;7.086;2023-06-22T10:29:23;16.60;;;7.80;;
68800;SDS011;55784;50.734;7.086;2023-06-22T10:31:49;11.20;;;7.60;;
68800;SDS011;55784;50.734;7.086;2023-06-22T10:34:14;15.03;;;8.70;;
68800;SDS011;55784;50.734;7.086;2023-06-22T10:36:41;12.18;;;8.50;;
68800;SDS011;55784;50.734;7.086;2023-06-22T10:39:12;12.90;;;8.52;;
68800;SDS011;55784;50.734;7.086;2023-06-22T10:41:37;14.97;;;8.77;;
68800;SDS011;55784;50.734;7.086;2023-06-22T10:44:03;18.53;;;11.50;;
68800;SDS011;55784;50.734;7.086;2023-06-22T10:46:28;26.75;;;16.20;;
68800;SDS011;55784;50.734;7.086;2023-06-22T10:48:53;19.33;;;12.80;;
68800;SDS011;55784;50.734;7.086;2023-06-22T10:51:20;20.98;;;13.10;;
68800;SDS011;55784;50.734;7.086;2023-06-22T10:53:45;22.40;;;13.63;;
68800;SDS011;55784;50.734;7.086;2023-06-22T10:56:11;19.93;;;14.07;;
68800;SDS011;55784;50.734;7.086;2023-06-22T10:58:36;21.35;;;13.63;;
68800;SDS011;55784;50.734;7.086;2023-06-22T11:01:02;23.50;;;14.30;;
68800;SDS011;55784;50.734;7.086;2023-06-22T11:03:28;22.13;;;14.40;;
68800;SDS011;55784;50.734;7.086;2023-06-22T11:05:53;29.57;;;16.43;;
68800;SDS011;55784;50.734;7.086;2023-06-22T11:08:18;27.20;;;16.87;;
68800;SDS011;55784;50.734;7.086;2023-06-22T11:10:44;24.93;;;16.50;;
68800;SDS011;55784;50.734;7.086;2023-06-22T11:13:09;25.80;;;16.30;;
68800;SDS011;55784;50.734;7.086;2023-06-22T11:15:35;26.80;;;16.67;;
68800;SDS011;55784;50.734;7.086;2023-06-22T11:18:01;22.70;;;16.27;;
68800;SDS011;55784;50.734;7.086;2023-06-22T11:20:26;21.67;;;15.80;;
68800;SDS011;55784;50.734;7.086;2023-06-22T11:22:52;21.77;;;14.40;;
68800;SDS011;55784;50.734;7.086;2023-06-22T11:25:17;23.83;;;15.77;;
68800;SDS011;55784;50.734;7.086;2023-06-22T11:27:42;22.87;;;14.30;;
68800;SDS011;55784;50.734;7.086;2023-06-22T11:30:08;23.80;;;15.13;;
68800;SDS011;55784;50.734;7.086;2023-06-22T11:32:34;21.80;;;13.25;;
68800;SDS011;55784;50.734;7.086;2023-06-22T11:34:59;21.27;;;14.83;;
68800;SDS011;55784;50.734;7.086;2023-06-22T11:37:24;21.00;;;14.00;;
68800;SDS011;55784;50.734;7.086;2023-06-22T11:39:51;20.75;;;12.02;;
68800;SDS011;55784;50.734;7.086;2023-06-22T11:42:18;16.05;;;11.32;;
68800;SDS011;55784;50.734;7.086;2023-06-22T11:44:44;17.45;;;11.35;;
68800;SDS011;55784;50.734;7.086;2023-06-22T11:47:09;17.77;;;11.47;;
68800;SDS011;55784;50.734;7.086;2023-06-22T11:49:34;34.90;;;13.43;;
68800;SDS011;55784;50.734;7.086;2023-06-22T11:52:00;16.83;;;11.37;;
68800;SDS011;55784;50.734;7.086;2023-06-22T11:54:25;14.87;;;10.47;;
68800;SDS011;55784;50.734;7.086;2023-06-22T11:56:50;17.33;;;11.45;;
68800;SDS011;55784;50.734;7.086;2023-06-22T11:59:16;18.57;;;12.20;;
68800;SDS011;55784;50.734;7.086;2023-06-22T12:01:41;19.43;;;11.77;;
68800;SDS011;55784;50.734;7.086;2023-06-22T12:04:07;30.87;;;13.83;;
68800;SDS011;55784;50.734;7.086;2023-06-22T12:06:37;19.65;;;12.32;;
68800;SDS011;55784;50.734;7.086;2023-06-22T12:09:03;20.13;;;11.27;;
68800;SDS011;55784;50.734;7.086;2023-06-22T12:11:29;18.43;;;11.40;;
68800;SDS011;55784;50.734;7.086;2023-06-22T12:13:55;23.50;;;12.20;;
68800;SDS011;55784;50.734;7.086;2023-06-22T12:16:20;18.60;;;10.93;;
68800;SDS011;55784;50.734;7.086;2023-06-22T12:18:46;17.50;;;11.00;;
68800;SDS011;55784;50.734;7.086;2023-06-22T12:21:12;20.98;;;11.65;;
68800;SDS011;55784;50.734;7.086;2023-06-22T12:23:37;30.43;;;13.17;;
68800;SDS011;55784;50.734;7.086;2023-06-22T12:26:03;17.97;;;10.53;;
68800;SDS011;55784;50.734;7.086;2023-06-22T12:28:30;14.13;;;8.87;;
68800;SDS011;55784;50.734;7.086;2023-06-22T12:30:56;14.48;;;9.07;;
68800;SDS011;55784;50.734;7.086;2023-06-22T12:33:21;15.40;;;9.82;;
68800;SDS011;55784;50.734;7.086;2023-06-22T12:35:56;13.63;;;9.27;;
68800;SDS011;55784;50.734;7.086;2023-06-22T12:38:24;13.45;;;8.55;;
68800;SDS011;55784;50.734;7.086;2023-06-22T12:40:50;11.95;;;7.40;;
68800;SDS011;55784;50.734;7.086;2023-06-22T12:43:16;11.30;;;6.07;;
68800;SDS011;55784;50.734;7.086;2023-06-22T12:45:41;9.50;;;5.87;;
68800;SDS011;55784;50.734;7.086;2023-06-22T12:51:39;10.80;;;6.00;;
68800;SDS011;55784;50.734;7.086;2023-06-22T12:54:06;11.88;;;6.03;;
68800;SDS011;55784;50.734;7.086;2023-06-22T12:56:31;9.27;;;5.80;;
68800;SDS011;55784;50.734;7.086;2023-06-22T12:58:57;12.37;;;5.93;;
68800;SDS011;55784;50.734;7.086;2023-06-22T13:01:22;12.60;;;6.10;;
68800;SDS011;55784;50.734;7.086;2023-06-22T13:03:47;9.67;;;5.60;;
68800;SDS011;55784;50.734;7.086;2023-06-22T13:06:13;10.15;;;5.63;;
68800;SDS011;55784;50.734;7.086;2023-06-22T13:08:38;29.47;;;8.90;;
68800;SDS011;55784;50.734;7.086;2023-06-22T13:11:03;10.60;;;5.90;;
68800;SDS011;55784;50.734;7.086;2023-06-22T13:13:29;10.70;;;5.70;;
68800;SDS011;55784;50.734;7.086;2023-06-22T13:15:54;10.43;;;6.30;;
68800;SDS011;55784;50.734;7.086;2023-06-22T13:18:19;9.77;;;6.03;;
68800;SDS011;55784;50.734;7.086;2023-06-22T13:20:45;9.87;;;6.10;;
68800;SDS011;55784;50.734;7.086;2023-06-22T13:23:10;11.43;;;5.73;;
68800;SDS011;55784;50.734;7.086;2023-06-22T13:25:36;10.25;;;5.60;;
68800;SDS011;55784;50.734;7.086;2023-06-22T13:28:01;10.00;;;5.13;;
68800;SDS011;55784;50.734;7.086;2023-06-22T13:30:26;8.20;;;5.00;;
68800;SDS011;55784;50.734;7.086;2023-06-22T13:32:52;7.57;;;4.13;;
68800;SDS011;55784;50.734;7.086;2023-06-22T13:35:17;7.57;;;3.53;;
68800;SDS011;55784;50.734;7.086;2023-06-22T13:37:42;7.47;;;3.30;;
68800;SDS011;55784;50.734;7.086;2023-06-22T13:40:08;8.60;;;3.63;;
68800;SDS011;55784;50.734;7.086;2023-06-22T13:42:34;8.18;;;3.65;;
68800;SDS011;55784;50.734;7.086;2023-06-22T13:44:59;7.40;;;3.30;;
68800;SDS011;55784;50.734;7.086;2023-06-22T13:47:25;7.80;;;3.53;;
68800;SDS011;55784;50.734;7.086;2023-06-22T13:49:50;6.70;;;3.30;;
68800;SDS011;55784;50.734;7.086;2023-06-22T13:52:16;8.27;;;4.03;;
68800;SDS011;55784;50.734;7.086;2023-06-22T13:54:41;9.30;;;4.15;;
68800;SDS011;55784;50.734;7.086;2023-06-22T13:57:06;9.67;;;4.30;;
68800;SDS011;55784;50.734;7.086;2023-06-22T13:59:32;8.17;;;4.37;;
68800;SDS011;55784;50.734;7.086;2023-06-22T14:01:57;8.63;;;4.97;;
68800;SDS011;55784;50.734;7.086;2023-06-22T14:04:23;8.37;;;4.83;;
68800;SDS011;55784;50.734;7.086;2023-06-22T14:06:48;9.57;;;5.10;;
68800;SDS011;55784;50.734;7.086;2023-06-22T14:09:14;14.20;;;5.87;;
68800;SDS011;55784;50.734;7.086;2023-06-22T14:11:39;10.03;;;5.50;;
68800;SDS011;55784;50.734;7.086;2023-06-22T14:14:04;9.57;;;5.10;;
68800;SDS011;55784;50.734;7.086;2023-06-22T14:16:30;9.07;;;4.80;;
68800;SDS011;55784;50.734;7.086;2023-06-22T14:18:55;9.40;;;4.82;;
68800;SDS011;55784;50.734;7.086;2023-06-22T14:21:20;8.03;;;4.50;;
68800;SDS011;55784;50.734;7.086;2023-06-22T14:23:46;9.03;;;4.70;;
68800;SDS011;55784;50.734;7.086;2023-06-22T14:26:14;8.65;;;4.72;;
68800;SDS011;55784;50.734;7.086;2023-06-22T14:28:46;9.40;;;4.32;;
68800;SDS011;55784;50.734;7.086;2023-06-22T14:31:14;9.50;;;4.77;;
68800;SDS011;55784;50.734;7.086;2023-06-22T14:33:40;9.00;;;4.78;;
68800;SDS011;55784;50.734;7.086;2023-06-22T14:36:05;9.90;;;4.80;;
68800;SDS011;55784;50.734;7.086;2023-06-22T14:38:30;9.13;;;4.70;;
68800;SDS011;55784;50.734;7.086;2023-06-22T14:40:56;12.80;;;5.90;;
68800;SDS011;55784;50.734;7.086;2023-06-22T14:43:21;12.87;;;6.37;;